Time;durP1;ratioP1;P1;durP2;ratioP2;P2;SDS_P1;SDS_P2;PMS_P1;PMS_P2;Temp;Humidity;BMP_temperature;BMP_pressure;BME280_temperature;BME280_humidity;BME280_pressure;Samples;Min_cycle;Max_cycle;Signal;HPM_P1;HPM_P2
2022/04/07 00:00:44;;;;;;;0.77;0.50;;;9.50;79.00;;;;;;5135655;27;20105;-76
2022/04/07 00:03:10;;;;;;;0.68;0.30;;;9.60;79.30;;;;;;5134381;27;20015;-77
2022/04/07 00:05:35;;;;;;;0.85;0.52;;;9.60;79.60;;;;;;5135698;27;20467;-77
2022/04/07 00:08:01;;;;;;;0.47;0.30;;;9.60;79.80;;;;;;5135624;27;20027;-76
2022/04/07 00:10:27;;;;;;;0.38;0.32;;;9.50;79.50;;;;;;5133901;27;20390;-76
2022/04/07 00:12:52;;;;;;;0.50;0.50;;;9.50;79.70;;;;;;5134730;27;20027;-77
2022/04/07 00:15:18;;;;;;;0.63;0.60;;;9.60;79.10;;;;;;5133609;27;20019;-77
2022/04/07 00:17:43;;;;;;;1.20;0.70;;;9.60;79.60;;;;;;5134611;27;20055;-76
2022/04/07 00:20:09;;;;;;;0.30;0.30;;;9.50;79.30;;;;;;5134835;27;20031;-77
2022/04/07 00:22:35;;;;;;;1.00;0.60;;;9.50;79.50;;;;;;5134830;27;20038;-77
2022/04/07 00:25:02;;;;;;;0.80;0.60;;;9.50;79.90;;;;;;5134910;27;20038;-76
2022/04/07 00:27:27;;;;;;;1.55;0.55;;;9.40;80.00;;;;;;5151027;27;20027;-76
2022/04/07 00:29:53;;;;;;;0.65;0.60;;;9.40;80.30;;;;;;5156644;27;20045;-76
2022/04/07 00:32:19;;;;;;;1.73;0.90;;;9.40;80.10;;;;;;5154978;27;20015;-76
2022/04/07 00:34:46;;;;;;;0.98;0.70;;;9.40;79.70;;;;;;5134778;27;20431;-77
2022/04/07 00:37:12;;;;;;;0.80;0.50;;;9.40;79.70;;;;;;5134491;27;20118;-77
2022/04/07 00:39:38;;;;;;;1.80;0.63;;;9.50;79.70;;;;;;5133496;27;20039;-77
2022/04/07 00:42:04;;;;;;;1.00;0.40;;;9.50;78.90;;;;;;5134440;27;20033;-77
2022/04/07 00:44:30;;;;;;;3.05;0.65;;;9.40;78.30;;;;;;5134454;27;20129;-77
2022/04/07 00:46:56;;;;;;;1.70;0.40;;;9.40;78.10;;;;;;5134364;27;20046;-77
2022/04/07 00:49:21;;;;;;;1.33;0.70;;;9.50;77.80;;;;;;5134244;27;20509;-77
2022/04/07 00:51:49;;;;;;;0.98;0.43;;;9.40;78.20;;;;;;5134282;27;20019;-77
2022/04/07 00:54:16;;;;;;;0.98;0.50;;;9.40;78.00;;;;;;5134137;27;20023;-76
2022/04/07 00:56:43;;;;;;;0.77;0.40;;;9.30;77.90;;;;;;5134265;27;20068;-76
2022/04/07 00:59:16;;;;;;;1.85;0.50;;;9.30;78.30;;;;;;5134051;27;20110;-77
2022/04/07 01:01:41;;;;;;;0.47;0.40;;;9.30;78.20;;;;;;5133937;27;20015;-77
2022/04/07 01:04:07;;;;;;;0.50;0.50;;;9.30;77.60;;;;;;5133979;27;20415;-77
2022/04/07 01:06:33;;;;;;;0.50;0.50;;;9.30;77.80;;;;;;5134014;27;20500;-77
2022/04/07 01:08:59;;;;;;;1.80;0.50;;;9.30;76.90;;;;;;5132705;27;20019;-77
2022/04/07 01:11:29;;;;;;;1.80;0.40;;;9.30;76.50;;;;;;5133901;27;20471;-77
2022/04/07 01:13:54;;;;;;;0.57;0.40;;;9.10;76.00;;;;;;5133965;27;20027;-76
2022/04/07 01:16:26;;;;;;;0.45;0.40;;;9.10;74.10;;;;;;5133652;27;20026;-77
2022/04/07 01:18:52;;;;;;;0.63;0.50;;;9.10;74.20;;;;;;5134205;27;20046;-76
2022/04/07 01:21:20;;;;;;;1.00;0.30;;;9.00;74.10;;;;;;5133855;27;20467;-76
2022/04/07 01:24:09;;;;;;;0.93;0.35;;;9.00;74.10;;;;;;5144867;27;20042;-76
2022/04/07 01:26:43;;;;;;;0.68;0.50;;;8.90;74.20;;;;;;5141829;27;20023;-77
2022/04/07 01:29:16;;;;;;;0.50;0.40;;;8.90;73.60;;;;;;5144001;27;20019;-76
2022/04/07 01:31:42;;;;;;;0.20;0.20;;;8.80;74.00;;;;;;5146344;28;20080;-76
2022/04/07 01:34:11;;;;;;;1.48;0.47;;;8.90;74.00;;;;;;5136572;28;20023;-76
2022/04/07 01:36:40;;;;;;;0.93;0.55;;;8.80;73.20;;;;;;5133465;28;20019;-76
2022/04/07 01:39:07;;;;;;;0.68;0.40;;;8.80;73.90;;;;;;5133363;28;20574;-76
2022/04/07 01:41:34;;;;;;;1.25;0.28;;;8.70;73.60;;;;;;5133552;28;20024;-76
2022/04/07 01:44:02;;;;;;;0.68;0.50;;;8.70;73.60;;;;;;5132041;28;20506;-76
2022/04/07 01:46:29;;;;;;;0.63;0.47;;;8.70;73.90;;;;;;5133532;28;20076;-76
2022/04/07 01:48:56;;;;;;;0.55;0.22;;;8.70;73.80;;;;;;5133400;28;20150;-77
2022/04/07 01:51:24;;;;;;;1.20;0.40;;;8.70;74.20;;;;;;5136390;27;20019;-76
2022/04/07 01:53:50;;;;;;;0.82;0.43;;;8.70;74.30;;;;;;5137525;27;20054;-76
2022/04/07 01:56:18;;;;;;;1.00;0.57;;;8.60;74.20;;;;;;5137560;27;20065;-77
2022/04/07 01:58:45;;;;;;;1.27;0.60;;;8.60;74.90;;;;;;5137029;27;20437;-76
2022/04/07 02:01:11;;;;;;;0.90;0.50;;;8.50;75.10;;;;;;5137396;27;20555;-76
2022/04/07 02:03:37;;;;;;;0.50;0.50;;;8.50;75.30;;;;;;5137317;27;20110;-76
2022/04/07 02:06:13;;;;;;;0.75;0.52;;;8.50;74.70;;;;;;5137343;27;20019;-75
2022/04/07 02:08:39;;;;;;;1.73;0.50;;;8.50;75.20;;;;;;5137202;27;20530;-76
2022/04/07 02:11:04;;;;;;;0.65;0.50;;;8.50;74.80;;;;;;5137399;27;20102;-77
2022/04/07 02:13:34;;;;;;;0.73;0.50;;;8.60;74.80;;;;;;5135877;27;20041;-77
2022/04/07 02:16:01;;;;;;;0.68;0.60;;;8.50;75.20;;;;;;5137106;27;20091;-77
2022/04/07 02:18:27;;;;;;;1.40;0.70;;;8.50;75.20;;;;;;5136988;27;20043;-76
2022/04/07 02:20:52;;;;;;;1.38;0.43;;;8.50;75.60;;;;;;5137565;27;20019;-77
2022/04/07 02:23:18;;;;;;;1.02;0.50;;;8.50;75.60;;;;;;5137412;27;20084;-76
2022/04/07 02:25:43;;;;;;;0.40;0.40;;;8.50;75.50;;;;;;5137262;27;20051;-76
2022/04/07 02:28:09;;;;;;;0.30;0.30;;;8.50;75.50;;;;;;5137604;27;20062;-76
2022/04/07 02:30:35;;;;;;;1.17;0.60;;;8.50;75.50;;;;;;5137444;27;20444;-77
2022/04/07 02:33:00;;;;;;;1.67;0.80;;;8.50;76.00;;;;;;5137294;27;20030;-76
2022/04/07 02:35:26;;;;;;;2.03;0.60;;;8.40;76.00;;;;;;5137440;27;20027;-77
2022/04/07 02:37:52;;;;;;;1.27;0.40;;;8.40;76.30;;;;;;5137174;27;20379;-77
2022/04/07 02:40:17;;;;;;;0.60;0.60;;;8.40;76.30;;;;;;5137376;27;20467;-77
2022/04/07 02:42:43;;;;;;;0.63;0.50;;;8.40;76.20;;;;;;5137198;27;20023;-77
2022/04/07 02:45:09;;;;;;;1.00;0.57;;;8.50;76.40;;;;;;5137211;27;20027;-76
2022/04/07 02:47:38;;;;;;;2.38;0.80;;;8.40;76.70;;;;;;5140090;27;20110;-77
2022/04/07 02:50:05;;;;;;;0.90;0.60;;;8.40;77.00;;;;;;5137210;27;20058;-76
2022/04/07 02:52:30;;;;;;;2.55;0.93;;;8.40;76.60;;;;;;5137130;27;20094;-76
2022/04/07 02:54:56;;;;;;;0.60;0.60;;;8.40;76.70;;;;;;5137031;27;20443;-77
2022/04/07 02:57:23;;;;;;;2.17;0.93;;;8.50;76.70;;;;;;5136956;27;20061;-76
2022/04/07 02:59:49;;;;;;;2.90;0.70;;;8.50;76.50;;;;;;5135612;27;20023;-77
2022/04/07 03:02:15;;;;;;;3.83;0.82;;;8.50;76.10;;;;;;5135938;27;20068;-76
2022/04/07 03:04:40;;;;;;;1.27;0.65;;;8.60;75.70;;;;;;5136736;27;20024;-77
2022/04/07 03:07:06;;;;;;;1.23;0.80;;;8.50;76.00;;;;;;5136610;27;20059;-78
2022/04/07 03:09:31;;;;;;;1.40;0.47;;;8.50;75.80;;;;;;5136520;27;20050;-77
2022/04/07 03:11:56;;;;;;;0.85;0.52;;;8.60;75.00;;;;;;5136544;27;20027;-77
2022/04/07 03:14:26;;;;;;;1.05;0.60;;;8.60;74.70;;;;;;5136597;27;20094;-77
2022/04/07 03:16:52;;;;;;;1.58;0.75;;;8.60;74.30;;;;;;5136576;27;20425;-77
2022/04/07 03:19:18;;;;;;;0.77;0.50;;;8.50;74.40;;;;;;5136553;27;20067;-77
2022/04/07 03:21:44;;;;;;;0.60;0.60;;;8.60;74.10;;;;;;5136448;27;20027;-77
2022/04/07 03:24:10;;;;;;;2.20;0.93;;;8.60;74.50;;;;;;5136445;27;20030;-77
2022/04/07 03:26:35;;;;;;;0.68;0.38;;;8.60;74.20;;;;;;5136217;27;20019;-77
2022/04/07 03:29:01;;;;;;;1.17;0.60;;;8.50;74.70;;;;;;5136356;27;20018;-77
2022/04/07 03:31:26;;;;;;;1.10;0.55;;;8.50;74.60;;;;;;5136134;27;20102;-77
2022/04/07 03:33:52;;;;;;;0.98;0.40;;;8.60;74.70;;;;;;5136168;27;20047;-78
2022/04/07 03:36:17;;;;;;;1.63;0.55;;;8.50;74.70;;;;;;5136159;27;20023;-77
2022/04/07 03:38:43;;;;;;;1.98;0.50;;;8.50;74.80;;;;;;5136042;27;20031;-77
2022/04/07 03:41:09;;;;;;;0.45;0.45;;;8.50;74.80;;;;;;5135986;27;20061;-77
2022/04/07 03:43:34;;;;;;;1.20;0.70;;;8.50;75.00;;;;;;5137163;27;20037;-77
2022/04/07 03:46:00;;;;;;;0.93;0.50;;;8.50;74.80;;;;;;5142431;27;20100;-77
2022/04/07 03:48:26;;;;;;;0.40;0.30;;;8.50;74.70;;;;;;5136559;27;20468;-76
2022/04/07 03:50:52;;;;;;;0.85;0.68;;;8.50;74.50;;;;;;5135914;27;20019;-76
2022/04/07 03:53:17;;;;;;;1.35;0.82;;;8.60;73.90;;;;;;5135646;27;20110;-76
2022/04/07 03:55:42;;;;;;;2.83;0.98;;;8.60;73.50;;;;;;5135807;27;20028;-76
2022/04/07 03:58:08;;;;;;;1.05;0.70;;;8.60;73.50;;;;;;5135562;27;20027;-76
2022/04/07 04:00:34;;;;;;;0.70;0.32;;;8.60;73.40;;;;;;5135707;27;20051;-76
2022/04/07 04:02:59;;;;;;;0.88;0.47;;;8.60;73.10;;;;;;5135534;27;20024;-76
2022/04/07 04:05:25;;;;;;;0.47;0.35;;;8.70;72.60;;;;;;5135580;27;20535;-76
2022/04/07 04:07:50;;;;;;;0.50;0.43;;;8.60;72.70;;;;;;5135576;27;20475;-76
2022/04/07 04:10:17;;;;;;;0.50;0.32;;;8.60;73.00;;;;;;5135448;27;20027;-76
2022/04/07 04:12:43;;;;;;;0.38;0.32;;;8.60;72.50;;;;;;5135389;27;20023;-76
2022/04/07 04:15:08;;;;;;;1.30;0.28;;;8.60;72.30;;;;;;5135343;27;20357;-76
2022/04/07 04:17:34;;;;;;;1.75;0.38;;;8.70;72.30;;;;;;5134977;27;20051;-76
2022/04/07 04:20:00;;;;;;;0.32;0.32;;;8.70;72.20;;;;;;5135273;27;20035;-76
2022/04/07 04:22:26;;;;;;;0.40;0.30;;;8.60;72.30;;;;;;5135217;27;20099;-76
2022/04/07 04:24:52;;;;;;;0.70;0.20;;;8.70;71.60;;;;;;5135231;27;20102;-76
2022/04/07 04:27:18;;;;;;;1.27;0.20;;;8.70;71.80;;;;;;5135223;27;20023;-76
2022/04/07 04:29:43;;;;;;;2.38;0.47;;;8.70;72.30;;;;;;5134983;27;20490;-76
2022/04/07 04:32:12;;;;;;;0.43;0.22;;;8.70;72.70;;;;;;5134747;27;20029;-76
2022/04/07 04:34:37;;;;;;;4.18;0.52;;;8.60;73.10;;;;;;5135014;27;20039;-78
2022/04/07 04:37:03;;;;;;;0.30;0.30;;;8.60;73.60;;;;;;5136875;27;20111;-76
2022/04/07 04:39:29;;;;;;;1.00;0.30;;;8.60;73.30;;;;;;5152400;27;20411;-76
2022/04/07 04:41:54;;;;;;;0.43;0.20;;;8.60;73.30;;;;;;5145294;27;20177;-75
2022/04/07 04:44:20;;;;;;;1.23;0.30;;;8.60;73.30;;;;;;5138892;27;20023;-77
2022/04/07 04:46:46;;;;;;;0.28;0.28;;;8.60;73.30;;;;;;5135567;27;20015;-76
2022/04/07 04:49:11;;;;;;;2.28;0.40;;;8.60;73.20;;;;;;5135443;27;20371;-76
2022/04/07 04:51:37;;;;;;;0.70;0.30;;;8.70;73.30;;;;;;5134554;27;20034;-75
2022/04/07 04:54:02;;;;;;;0.40;0.30;;;8.70;73.50;;;;;;5134321;27;20031;-76
2022/04/07 04:56:28;;;;;;;0.38;0.22;;;8.70;73.30;;;;;;5134554;27;20374;-75
2022/04/07 04:58:54;;;;;;;1.38;0.20;;;8.70;73.50;;;;;;5134179;27;20100;-76
2022/04/07 05:01:20;;;;;;;1.25;0.20;;;8.70;73.40;;;;;;5134348;27;20027;-76
2022/04/07 05:03:46;;;;;;;0.70;0.30;;;8.70;73.50;;;;;;5133906;27;20038;-76
2022/04/07 05:06:11;;;;;;;1.77;0.20;;;8.70;74.40;;;;;;5134216;27;20019;-76
2022/04/07 05:08:37;;;;;;;1.40;0.13;;;8.70;73.40;;;;;;5134131;27;20027;-76
2022/04/07 05:11:03;;;;;;;0.20;0.20;;;8.70;73.30;;;;;;5134295;27;20023;-76
2022/04/07 05:13:28;;;;;;;0.17;0.17;;;8.80;73.80;;;;;;5134205;27;20023;-77
2022/04/07 05:15:54;;;;;;;0.85;0.40;;;8.70;74.10;;;;;;5134109;27;20597;-77
2022/04/07 05:18:20;;;;;;;0.25;0.10;;;8.70;74.30;;;;;;5134461;27;20043;-76
2022/04/07 05:20:45;;;;;;;1.33;0.30;;;8.70;74.50;;;;;;5144304;27;20057;-75
2022/04/07 05:23:11;;;;;;;4.07;0.30;;;8.70;74.70;;;;;;5142703;27;20072;-76
2022/04/07 05:25:37;;;;;;;0.60;0.32;;;8.70;75.00;;;;;;5133814;27;20031;-76
2022/04/07 05:28:02;;;;;;;2.78;0.30;;;8.70;74.90;;;;;;5134033;27;20058;-76
2022/04/07 05:30:28;;;;;;;0.13;0.13;;;8.70;74.80;;;;;;5133467;27;20027;-76
2022/04/07 05:32:54;;;;;;;0.28;0.20;;;8.70;74.50;;;;;;5133193;27;20015;-77
2022/04/07 05:35:20;;;;;;;0.95;0.20;;;8.70;74.80;;;;;;5133629;28;20015;-76
2022/04/07 05:37:46;;;;;;;1.15;0.50;;;8.70;75.00;;;;;;5132203;28;20027;-76
2022/04/07 05:40:13;;;;;;;1.00;0.38;;;8.70;74.20;;;;;;5133803;28;20054;-76
2022/04/07 05:42:39;;;;;;;1.77;0.40;;;8.70;73.80;;;;;;5133862;28;20026;-76
2022/04/07 05:45:05;;;;;;;1.90;0.15;;;8.90;72.00;;;;;;5133557;28;20031;-75
2022/04/07 05:47:37;;;;;;;1.33;0.30;;;8.90;72.20;;;;;;5133778;28;20037;-76
2022/04/07 05:50:04;;;;;;;2.67;0.55;;;8.90;72.50;;;;;;5133475;28;20531;-76
2022/04/07 05:52:29;;;;;;;0.93;0.30;;;8.90;72.30;;;;;;5133507;28;20474;-76
2022/04/07 05:54:55;;;;;;;0.35;0.13;;;8.90;72.30;;;;;;5134440;28;20035;-79
2022/04/07 05:57:22;;;;;;;0.47;0.30;;;9.00;71.90;;;;;;5138315;28;20035;-83
2022/04/07 05:59:47;;;;;;;0.80;0.25;;;9.00;71.50;;;;;;5136403;28;20027;-78
2022/04/07 06:02:13;;;;;;;0.35;0.17;;;9.00;70.90;;;;;;5135462;28;20509;-77
2022/04/07 06:04:40;;;;;;;2.42;0.30;;;9.10;70.50;;;;;;5133928;28;20109;-77
2022/04/07 06:07:06;;;;;;;0.60;0.30;;;9.20;70.80;;;;;;5139950;28;20505;-76
2022/04/07 06:09:33;;;;;;;1.00;0.40;;;9.20;70.00;;;;;;5134950;28;20027;-77
2022/04/07 06:11:58;;;;;;;5.15;0.68;;;9.20;70.30;;;;;;5134340;28;20026;-78
2022/04/07 06:14:24;;;;;;;1.25;0.38;;;9.20;70.30;;;;;;5134313;28;20035;-79
2022/04/07 06:16:49;;;;;;;0.70;0.40;;;9.20;69.90;;;;;;5132134;28;20047;-78
2022/04/07 06:19:15;;;;;;;0.80;0.20;;;9.20;70.10;;;;;;5133913;28;20031;-77
2022/04/07 06:21:43;;;;;;;0.77;0.20;;;9.20;70.50;;;;;;5133615;28;20062;-77
2022/04/07 06:24:08;;;;;;;1.67;0.32;;;9.20;70.80;;;;;;5133518;28;20031;-77
2022/04/07 06:26:34;;;;;;;0.35;0.10;;;9.20;71.00;;;;;;5133463;28;20072;-78
2022/04/07 06:28:59;;;;;;;0.10;0.10;;;9.10;71.20;;;;;;5133377;28;20380;-79
2022/04/07 06:31:26;;;;;;;0.20;0.15;;;9.20;70.80;;;;;;5133196;28;20026;-76
2022/04/07 06:33:51;;;;;;;0.55;0.20;;;9.20;71.00;;;;;;5133310;28;20015;-75
2022/04/07 06:36:17;;;;;;;1.73;0.45;;;9.20;71.10;;;;;;5132510;27;20064;-76
2022/04/07 06:38:42;;;;;;;0.70;0.10;;;9.20;71.50;;;;;;5136397;27;20172;-76
2022/04/07 06:41:08;;;;;;;0.75;0.20;;;9.20;71.20;;;;;;5135722;27;20030;-75
2022/04/07 06:43:33;;;;;;;0.75;0.20;;;9.20;71.20;;;;;;5137194;27;20080;-76
2022/04/07 06:45:59;;;;;;;0.20;0.20;;;9.10;70.60;;;;;;5137040;27;20462;-78
2022/04/07 06:48:24;;;;;;;0.47;0.20;;;9.20;70.00;;;;;;5136972;27;20031;-77
2022/04/07 06:50:50;;;;;;;2.40;0.50;;;9.20;70.40;;;;;;5136884;27;20037;-77
2022/04/07 06:53:16;;;;;;;0.80;0.30;;;9.30;70.40;;;;;;5136830;27;20030;-77
2022/04/07 06:55:43;;;;;;;0.55;0.38;;;9.30;70.10;;;;;;5136790;27;20491;-77
2022/04/07 06:58:10;;;;;;;0.52;0.20;;;9.40;69.90;;;;;;5136997;27;20042;-78
2022/04/07 07:00:44;;;;;;;1.35;0.47;;;9.50;69.00;;;;;;5136575;27;20106;-77
2022/04/07 07:03:10;;;;;;;0.30;0.30;;;9.60;68.30;;;;;;5136518;27;20421;-78
2022/04/07 07:05:37;;;;;;;1.38;0.63;;;9.70;68.30;;;;;;5136519;27;20522;-77
2022/04/07 07:08:13;;;;;;;1.08;0.38;;;9.80;67.40;;;;;;5136327;27;20027;-75
2022/04/07 07:10:40;;;;;;;4.70;0.40;;;9.70;67.60;;;;;;5136223;27;20050;-73
2022/04/07 07:13:06;;;;;;;2.88;0.45;;;9.80;67.50;;;;;;5136347;27;20019;-76
2022/04/07 07:15:31;;;;;;;0.30;0.30;;;9.90;67.70;;;;;;5136351;27;20030;-74
2022/04/07 07:17:57;;;;;;;2.80;0.50;;;9.90;67.50;;;;;;5136008;27;20403;-75
2022/04/07 07:20:22;;;;;;;0.60;0.30;;;10.00;68.20;;;;;;5135917;27;20072;-75
2022/04/07 07:22:48;;;;;;;0.65;0.32;;;9.90;67.70;;;;;;5136047;27;20061;-74
2022/04/07 07:25:14;;;;;;;1.15;0.40;;;9.90;67.70;;;;;;5136195;27;20045;-73
2022/04/07 07:27:44;;;;;;;0.68;0.28;;;9.90;67.90;;;;;;5135873;27;20023;-74
2022/04/07 07:30:11;;;;;;;3.00;0.35;;;10.00;67.70;;;;;;5135865;27;20020;-78
2022/04/07 07:32:37;;;;;;;0.20;0.20;;;10.10;68.10;;;;;;5135691;27;20073;-75
2022/04/07 07:35:04;;;;;;;0.50;0.30;;;10.10;67.50;;;;;;5135663;27;20023;-74
2022/04/07 07:37:30;;;;;;;1.95;0.30;;;10.20;67.00;;;;;;5139406;27;20020;-73
2022/04/07 07:39:56;;;;;;;2.38;0.30;;;10.30;66.90;;;;;;5145640;27;20023;-73
2022/04/07 07:42:22;;;;;;;1.13;0.30;;;10.30;67.00;;;;;;5134272;27;20126;-75
2022/04/07 07:44:48;;;;;;;2.25;0.22;;;10.30;67.10;;;;;;5135920;27;20027;-76
2022/04/07 07:47:13;;;;;;;1.55;0.40;;;10.30;67.00;;;;;;5135813;27;20022;-76
2022/04/07 07:49:39;;;;;;;1.00;0.43;;;10.30;67.20;;;;;;5135173;27;20559;-76
2022/04/07 07:52:05;;;;;;;2.53;0.35;;;10.20;66.50;;;;;;5135411;27;20027;-73
2022/04/07 07:54:30;;;;;;;1.67;0.28;;;10.10;67.60;;;;;;5135195;27;20023;-74
2022/04/07 07:56:56;;;;;;;0.82;0.30;;;10.10;67.40;;;;;;5135474;27;20026;-73
2022/04/07 07:59:21;;;;;;;3.13;0.30;;;10.20;67.70;;;;;;5135491;27;20046;-73
2022/04/07 08:01:48;;;;;;;0.80;0.30;;;10.10;67.80;;;;;;5135296;27;20015;-72
2022/04/07 08:04:14;;;;;;;0.63;0.00;;;10.20;67.90;;;;;;5135263;27;20111;-73
2022/04/07 08:06:40;;;;;;;1.67;0.40;;;10.20;67.80;;;;;;5135118;27;20015;-72
2022/04/07 08:09:05;;;;;;;0.52;0.20;;;10.30;67.90;;;;;;5135169;27;20443;-72
2022/04/07 08:11:31;;;;;;;1.95;0.35;;;10.30;67.90;;;;;;5133532;27;20015;-73
2022/04/07 08:13:57;;;;;;;1.13;0.40;;;10.40;67.10;;;;;;5133799;27;20062;-73
2022/04/07 08:16:23;;;;;;;3.30;0.20;;;10.40;67.70;;;;;;5134836;27;20471;-73
2022/04/07 08:18:48;;;;;;;1.65;0.10;;;10.50;66.90;;;;;;5135084;27;20035;-72
2022/04/07 08:21:14;;;;;;;1.05;0.20;;;10.50;67.40;;;;;;5134976;27;20027;-72
2022/04/07 08:23:40;;;;;;;1.50;0.35;;;10.50;67.30;;;;;;5133617;27;20023;-73
2022/04/07 08:26:05;;;;;;;0.95;0.30;;;10.40;67.60;;;;;;5135098;27;20030;-74
2022/04/07 08:28:31;;;;;;;2.20;0.30;;;10.50;67.70;;;;;;5134628;27;20490;-80
2022/04/07 08:30:56;;;;;;;0.10;0.10;;;10.50;67.40;;;;;;5134688;27;20496;-73
2022/04/07 08:33:22;;;;;;;0.40;0.22;;;10.50;68.10;;;;;;5135835;27;20027;-82
2022/04/07 08:35:47;;;;;;;1.35;0.40;;;10.40;69.20;;;;;;5134702;27;20423;-75
2022/04/07 08:38:16;;;;;;;1.00;0.35;;;10.40;71.00;;;;;;5135999;27;20035;-77
2022/04/07 08:40:42;;;;;;;0.10;0.10;;;10.40;70.30;;;;;;5134241;27;20110;-76
2022/04/07 08:43:09;;;;;;;2.03;0.22;;;10.50;71.20;;;;;;5135893;27;20027;-78
2022/04/07 08:45:40;;;;;;;1.33;0.40;;;10.60;69.90;;;;;;5136070;27;20019;-74
2022/04/07 08:48:09;;;;;;;0.55;0.25;;;10.70;68.60;;;;;;5135194;27;20034;-75
2022/04/07 08:50:35;;;;;;;1.30;0.40;;;10.70;68.60;;;;;;5136254;27;20118;-73
2022/04/07 08:53:02;;;;;;;0.73;0.40;;;10.60;68.00;;;;;;5135814;27;20059;-73
2022/04/07 08:55:28;;;;;;;1.05;0.30;;;10.80;68.60;;;;;;5135322;27;20094;-73
2022/04/07 08:57:53;;;;;;;1.00;0.20;;;10.90;68.50;;;;;;5133559;27;20947;-74
2022/04/07 09:00:20;;;;;;;2.25;0.50;;;10.70;67.50;;;;;;5132927;27;20023;-73
2022/04/07 09:02:46;;;;;;;0.98;0.20;;;10.60;68.20;;;;;;5134598;27;20058;-75
2022/04/07 09:05:12;;;;;;;0.77;0.20;;;10.40;70.60;;;;;;5134759;27;20015;-80
2022/04/07 09:07:38;;;;;;;0.35;0.20;;;10.30;70.50;;;;;;5134917;27;20027;-73
2022/04/07 09:10:05;;;;;;;2.50;0.30;;;10.30;69.60;;;;;;5134244;27;20029;-72
2022/04/07 09:12:34;;;;;;;0.55;0.40;;;10.40;71.10;;;;;;5133108;27;20468;-72
2022/04/07 09:15:00;;;;;;;1.73;0.40;;;10.50;70.80;;;;;;5133306;27;20042;-72
2022/04/07 09:17:26;;;;;;;0.45;0.25;;;10.70;69.70;;;;;;5133064;27;20058;-73
2022/04/07 09:19:53;;;;;;;1.45;0.30;;;10.80;68.90;;;;;;5093631;28;20498;-72
2022/04/07 09:22:30;;;;;;;1.20;0.20;;;11.00;67.90;;;;;;5126225;27;20114;-73
2022/04/07 09:24:55;;;;;;;0.35;0.30;;;11.00;67.00;;;;;;5116740;27;20068;-74
2022/04/07 09:27:21;;;;;;;1.77;0.28;;;11.20;66.80;;;;;;5116235;28;20027;-76
2022/04/07 09:29:47;;;;;;;0.63;0.28;;;11.20;66.10;;;;;;5115169;27;20087;-77
2022/04/07 09:32:24;;;;;;;0.30;0.20;;;11.40;65.50;;;;;;5115516;28;20092;-73
2022/04/07 09:34:58;;;;;;;0.40;0.10;;;11.40;64.50;;;;;;5115296;28;20023;-74
2022/04/07 09:37:25;;;;;;;0.82;0.30;;;11.40;64.50;;;;;;5133751;28;20477;-73
2022/04/07 09:40:12;;;;;;;3.45;0.38;;;11.50;63.90;;;;;;5115162;28;20095;-72
2022/04/07 09:42:40;;;;;;;0.85;0.30;;;11.40;64.00;;;;;;5133848;28;20015;-75
2022/04/07 09:45:07;;;;;;;0.25;0.20;;;11.50;64.60;;;;;;5115545;28;20497;-76
2022/04/07 09:47:43;;;;;;;0.43;0.10;;;11.60;65.00;;;;;;5115587;28;20027;-75
2022/04/07 09:50:28;;;;;;;;;;;11.60;65.10;;;;;;5116294;28;20023;-74
2022/04/07 09:53:03;;;;;;;1.33;0.13;;;11.60;65.20;;;;;;5115965;27;20333;-75
2022/04/07 09:55:34;;;;;;;3.22;0.20;;;11.70;65.00;;;;;;5116012;28;20387;-76
2022/04/07 09:58:02;;;;;;;2.67;0.20;;;11.60;64.70;;;;;;5126371;28;20087;-76
2022/04/07 10:00:28;;;;;;;0.57;0.13;;;11.40;65.70;;;;;;5150836;28;20050;-76
2022/04/07 10:02:55;;;;;;;1.85;0.20;;;11.30;66.60;;;;;;5129955;28;20031;-75
2022/04/07 10:05:22;;;;;;;1.90;0.10;;;11.40;65.80;;;;;;5119806;28;20054;-77
2022/04/07 10:07:49;;;;;;;0.30;0.20;;;11.30;66.20;;;;;;5133516;28;20494;-74
2022/04/07 10:10:17;;;;;;;1.52;0.10;;;11.30;65.30;;;;;;5131335;28;20249;-75
2022/04/07 10:12:43;;;;;;;2.45;0.10;;;11.50;65.00;;;;;;5126573;27;20065;-80
2022/04/07 10:15:09;;;;;;;0.28;0.10;;;11.60;64.50;;;;;;5138322;27;20027;-83
2022/04/07 10:17:39;;;;;;;0.45;0.10;;;11.70;63.90;;;;;;5120167;27;20496;-74
2022/04/07 10:20:11;;;;;;;5.93;0.22;;;11.70;62.90;;;;;;5119183;27;20041;-73
2022/04/07 10:23:07;;;;;;;0.45;0.20;;;12.00;63.30;;;;;;5119032;27;20026;-74
2022/04/07 10:25:37;;;;;;;;;;;12.00;61.60;;;;;;5119592;27;20073;-78
2022/04/07 10:28:04;;;;;;;0.73;0.10;;;12.10;62.10;;;;;;5118937;27;19903;-82
2022/04/07 10:30:32;;;;;;;0.32;0.10;;;12.30;61.00;;;;;;5118690;27;20023;-75
2022/04/07 10:32:58;;;;;;;0.45;0.20;;;12.40;61.00;;;;;;5118989;27;20031;-76
2022/04/07 10:35:27;;;;;;;0.55;0.10;;;12.40;60.60;;;;;;5119095;27;20027;-78
2022/04/07 10:37:53;;;;;;;1.00;0.17;;;12.30;61.50;;;;;;5118425;27;20030;-75
2022/04/07 10:40:44;;;;;;;0.38;0.10;;;12.40;61.10;;;;;;5137575;27;20035;-80
2022/04/07 10:43:14;;;;;;;0.10;0.08;;;12.50;61.50;;;;;;5146779;27;20027;-80
2022/04/07 10:46:13;;;;;;;1.58;0.13;;;12.70;59.90;;;;;;5128155;27;20360;-83
2022/04/07 10:48:49;;;;;;;0.13;0.00;;;12.70;60.70;;;;;;5137798;27;20026;-74
2022/04/07 10:51:16;;;;;;;1.55;0.10;;;13.00;59.20;;;;;;5137856;27;20031;-77
2022/04/07 10:54:02;;;;;;;0.10;0.10;;;13.10;59.00;;;;;;5136975;27;20420;-82
2022/04/07 10:56:34;;;;;;;0.10;0.10;;;13.20;58.80;;;;;;5117977;27;20031;-74
2022/04/07 10:59:18;;;;;;;0.90;0.10;;;13.10;58.50;;;;;;5117807;27;20119;-87
2022/04/07 11:01:47;;;;;;;0.47;0.00;;;13.10;59.20;;;;;;5136297;27;20034;-73
2022/04/07 11:07:13;;;;;;;0.40;0.00;;;12.90;59.70;;;;;;5136268;27;20077;-75
2022/04/07 11:09:57;;;;;;;0.57;0.00;;;12.80;59.50;;;;;;5118210;27;20356;-73
2022/04/07 11:12:46;;;;;;;1.33;0.03;;;13.10;59.10;;;;;;5118491;27;20151;-73
2022/04/07 11:15:33;;;;;;;0.98;0.10;;;13.00;58.70;;;;;;5117179;27;20094;-75
2022/04/07 11:18:14;;;;;;;0.10;0.03;;;13.00;59.60;;;;;;5139732;27;20043;-75
2022/04/07 11:21:07;;;;;;;2.90;0.10;;;12.90;59.00;;;;;;5119860;27;20032;-74
2022/04/07 11:24:06;;;;;;;0.28;0.13;;;13.00;59.30;;;;;;5131551;27;20019;-74
2022/04/07 11:26:34;;;;;;;0.20;0.10;;;12.60;60.70;;;;;;5112033;27;20034;-75
2022/04/07 11:29:03;;;;;;;0.30;0.22;;;12.20;63.80;;;;;;5130784;27;20086;-74
2022/04/07 11:31:49;;;;;;;0.20;0.10;;;11.90;65.80;;;;;;5125382;27;20027;-75
2022/04/07 11:34:33;;;;;;;;;;;11.70;66.00;;;;;;5118252;27;20347;-75
2022/04/07 11:36:59;;;;;;;2.85;0.17;;;11.60;65.90;;;;;;5117295;27;19904;-74
2022/04/07 11:39:25;;;;;;;0.00;0.00;;;11.40;68.50;;;;;;5135748;27;20050;-73
2022/04/07 11:41:52;;;;;;;0.00;0.00;;;11.30;69.10;;;;;;5117079;27;20019;-73
2022/04/07 11:44:20;;;;;;;1.75;0.10;;;11.20;70.20;;;;;;5100451;27;20497;-73
2022/04/07 11:46:46;;;;;;;2.40;0.00;;;11.20;70.30;;;;;;5117275;27;20106;-76
2022/04/07 11:49:13;;;;;;;0.00;0.00;;;11.10;70.80;;;;;;5117102;27;20074;-76
2022/04/07 11:51:39;;;;;;;0.10;0.10;;;11.10;70.10;;;;;;5116964;27;20420;-76
2022/04/07 11:54:05;;;;;;;0.00;0.00;;;11.00;70.40;;;;;;5100080;27;20055;-77
2022/04/07 11:56:32;;;;;;;0.90;0.10;;;11.00;70.70;;;;;;5116896;27;20078;-77
2022/04/07 11:59:11;;;;;;;2.72;0.20;;;11.10;72.20;;;;;;5117107;27;20083;-78
2022/04/07 12:01:43;;;;;;;0.32;0.10;;;11.00;72.10;;;;;;5116982;27;20019;-74
2022/04/07 12:04:10;;;;;;;1.83;0.10;;;10.90;70.50;;;;;;5117439;27;20072;-73
2022/04/07 12:06:40;;;;;;;0.10;0.00;;;10.90;70.20;;;;;;5116846;27;20023;-75
2022/04/07 12:09:06;;;;;;;0.70;0.08;;;10.90;70.30;;;;;;5116690;27;20039;-76
2022/04/07 12:11:38;;;;;;;0.65;0.00;;;10.80;70.80;;;;;;5116569;27;20019;-73
2022/04/07 12:14:08;;;;;;;1.80;0.40;;;10.80;69.80;;;;;;5134924;27;20038;-75
2022/04/07 12:16:35;;;;;;;0.98;0.10;;;10.80;69.80;;;;;;5116424;27;20015;-78
2022/04/07 12:19:04;;;;;;;1.33;0.10;;;10.90;70.00;;;;;;5116494;27;20031;-77
2022/04/07 12:21:49;;;;;;;0.32;0.25;;;11.00;69.80;;;;;;5116471;27;20050;-78
2022/04/07 12:24:14;;;;;;;1.95;0.10;;;11.00;69.40;;;;;;5099251;27;20023;-73
2022/04/07 12:26:45;;;;;;;0.88;0.20;;;11.00;69.70;;;;;;5116058;27;20033;-75
2022/04/07 12:29:22;;;;;;;0.20;0.10;;;11.00;69.70;;;;;;5117122;27;20027;-74
2022/04/07 12:32:06;;;;;;;0.17;0.15;;;11.00;69.90;;;;;;5132268;27;20019;-76
2022/04/07 12:34:33;;;;;;;2.17;0.15;;;11.20;70.40;;;;;;5119520;28;20066;-78
2022/04/07 12:37:00;;;;;;;0.20;0.10;;;11.20;69.70;;;;;;5116402;27;20377;-76
2022/04/07 12:39:35;;;;;;;2.10;0.17;;;11.30;67.70;;;;;;5116023;27;20066;-78
2022/04/07 12:42:05;;;;;;;0.00;0.00;;;11.40;68.30;;;;;;5115701;27;20052;-75
2022/04/07 12:44:35;;;;;;;0.30;0.10;;;11.60;67.20;;;;;;5115896;27;20080;-75
2022/04/07 12:47:11;;;;;;;0.57;0.20;;;11.50;67.30;;;;;;5115788;27;20693;-76
2022/04/07 12:49:37;;;;;;;1.88;0.10;;;11.40;67.10;;;;;;5115892;27;20023;-77
2022/04/07 12:52:11;;;;;;;1.65;0.10;;;11.60;67.60;;;;;;5134578;27;20027;-74
2022/04/07 12:54:57;;;;;;;0.17;0.08;;;11.60;66.40;;;;;;5115705;27;20088;-76
2022/04/07 12:57:31;;;;;;;0.20;0.00;;;11.60;66.50;;;;;;5116181;27;20035;-74
2022/04/07 12:59:58;;;;;;;0.00;0.00;;;11.60;66.00;;;;;;5115760;27;20035;-75